Powersville, Iowa
Current Conditions -  °F | °C
As of 6:15 PM on Monday 20 Oct 2014 (Local Time) from KCCY Reporting Station
Clear Clear  
Wind Chill: 61°   Ceiling: Unl
Heat Index: 61°   Visibility: 10mi
Dew Point: 41°   Wind: 7mph
Humidity: 48%   Direction: 330°NNW
Pressure: 30"   Gusts: NA
Location:  42.9285°N, 92.7279°W
Report Text: KCCY 202315Z AUTO 33006KT 10SM CLR 16/05 A3000 RMK AO2
Loading
Personal Weather Stations






























Interactive Weather Map
Tropical Storm Tracking
New forecast layout! Learn more

10-Day Weather Forecast

Advertisements
Track Severe Weather on mobile